Terminal Aerodrome Forecast
Issued by NWS Portland, ME

Home | Current Version | Previous Version | Text Only | Print | Product List | Glossary On
Versions: 1 2 3 4 5 6 7 8 9 10 11 12 13 14 15 16 17 18 19 20 21
000
FTUS41 KGYX 281400 AAD
TAFCON
TAF AMD
KCON 281431Z 2815/2912 12005KT 3SM SHRA BR BKN012 OVC020
     FM281600 15008KT 6SM -SHRA BR SCT012 OVC020
     FM282200 20007KT P6SM -SHRA BKN018 OVC030
     FM290400 20006KT P6SM BKN040=

USA.gov is the U.S. government's official web portal to all federal, state and local government web resources and services.